createdAt,value
2018-11-04T00:01:36.641Z,11.57
2018-11-04T00:04:05.902Z,11.55
2018-11-04T00:06:35.029Z,11.57
2018-11-04T00:09:05.382Z,11.54
2018-11-04T00:11:34.583Z,11.51
2018-11-04T00:14:04.125Z,11.56
2018-11-04T00:16:33.313Z,11.50
2018-11-04T00:19:02.485Z,11.51
2018-11-04T00:21:31.661Z,11.49
2018-11-04T00:24:00.873Z,11.50
2018-11-04T00:26:30.078Z,11.49
2018-11-04T00:28:59.275Z,11.49
2018-11-04T00:31:28.541Z,11.51
2018-11-04T00:33:57.753Z,11.47
2018-11-04T00:36:26.947Z,11.48
2018-11-04T00:38:56.174Z,11.49
2018-11-04T00:41:25.407Z,11.47
2018-11-04T00:43:54.614Z,11.45
2018-11-04T00:46:23.801Z,11.43
2018-11-04T00:48:53.008Z,11.45
2018-11-04T00:51:22.224Z,11.43
2018-11-04T00:53:51.618Z,11.42
2018-11-04T00:56:20.802Z,11.42
2018-11-04T00:58:50.023Z,11.39
2018-11-04T01:01:19.291Z,11.39
2018-11-04T01:03:48.464Z,11.37
2018-11-04T01:06:17.720Z,11.35
2018-11-04T01:08:46.952Z,11.38
2018-11-04T01:11:16.115Z,11.34
2018-11-04T01:13:45.364Z,11.33
2018-11-04T01:16:14.687Z,11.32
2018-11-04T01:18:43.893Z,11.35
2018-11-04T01:21:13.134Z,11.34
2018-11-04T01:23:42.295Z,11.30
2018-11-04T01:26:11.559Z,11.32
2018-11-04T01:28:40.787Z,11.32
2018-11-04T01:31:10.090Z,11.30
2018-11-04T01:33:39.220Z,11.32
2018-11-04T01:36:08.417Z,11.32
2018-11-04T01:38:37.952Z,11.31
2018-11-04T01:41:07.332Z,11.30
2018-11-04T01:43:37.082Z,11.28
2018-11-04T01:46:06.288Z,11.28
2018-11-04T01:48:35.578Z,11.31
2018-11-04T01:51:04.797Z,11.31
2018-11-04T01:53:34.026Z,11.28
2018-11-04T01:56:03.268Z,11.24
2018-11-04T01:58:32.513Z,11.22
2018-11-04T02:01:01.896Z,11.25
2018-11-04T02:03:31.115Z,11.20
2018-11-04T02:06:00.282Z,11.20
2018-11-04T02:08:29.612Z,11.19
2018-11-04T02:10:58.791Z,11.21
2018-11-04T02:13:27.982Z,11.17
2018-11-04T02:15:57.247Z,11.18
2018-11-04T02:18:26.449Z,11.16
2018-11-04T02:20:55.671Z,11.15
2018-11-04T02:23:24.975Z,11.20
2018-11-04T02:25:54.205Z,11.14
2018-11-04T02:28:23.525Z,11.13
2018-11-04T02:30:52.698Z,11.12
2018-11-04T02:33:21.868Z,11.13
2018-11-04T02:35:51.052Z,11.12
2018-11-04T02:38:20.458Z,11.10
2018-11-04T02:40:49.854Z,11.10
2018-11-04T02:43:19.052Z,11.13
2018-11-04T02:45:48.317Z,11.11
2018-11-04T02:48:17.522Z,11.08
2018-11-04T02:50:46.743Z,11.15
2018-11-04T02:53:15.977Z,11.08
2018-11-04T02:55:45.230Z,11.10
2018-11-04T02:58:14.540Z,11.11
2018-11-04T03:00:43.831Z,11.14
2018-11-04T03:03:13.016Z,11.12
2018-11-04T03:05:42.195Z,11.11
2018-11-04T03:08:11.432Z,11.10
2018-11-04T03:10:40.591Z,11.10
2018-11-04T03:13:09.842Z,11.09
2018-11-04T03:15:39.041Z,11.09
2018-11-04T03:18:08.199Z,11.06
2018-11-04T03:20:37.398Z,11.10
2018-11-04T03:23:07.175Z,11.05
2018-11-04T03:25:36.366Z,11.02
2018-11-04T03:28:06.001Z,11.05
2018-11-04T03:30:35.557Z,11.00
2018-11-04T03:33:04.747Z,11.00
2018-11-04T03:35:33.926Z,11.02
2018-11-04T03:38:03.126Z,11.02
2018-11-04T03:40:32.307Z,11.01
2018-11-04T03:43:01.480Z,11.01
2018-11-04T03:45:30.727Z,11.01
2018-11-04T03:47:59.919Z,11.01
2018-11-04T03:50:29.184Z,11.02
2018-11-04T03:53:02.495Z,11.02
2018-11-04T03:55:31.664Z,11.03
2018-11-04T03:58:00.915Z,11.08
2018-11-04T04:00:30.107Z,11.05
2018-11-04T04:02:59.335Z,11.01
2018-11-04T04:05:28.740Z,11.04
2018-11-04T04:07:57.995Z,11.09
2018-11-04T04:10:27.140Z,11.07
2018-11-04T04:12:56.636Z,11.07
2018-11-04T04:15:25.908Z,11.07
2018-11-04T04:17:55.107Z,11.10
2018-11-04T04:20:24.316Z,11.07
2018-11-04T04:22:53.544Z,11.09
2018-11-04T04:25:22.746Z,11.08
2018-11-04T04:27:51.975Z,11.08
2018-11-04T04:30:21.167Z,11.10
2018-11-04T04:32:50.319Z,11.13
2018-11-04T04:35:19.511Z,11.12
2018-11-04T04:37:48.659Z,11.12
2018-11-04T04:40:17.814Z,11.14
2018-11-04T04:42:46.975Z,11.16
2018-11-04T04:45:16.173Z,11.17
2018-11-04T04:47:45.345Z,11.17
2018-11-04T04:50:14.575Z,11.16
2018-11-04T04:52:43.830Z,11.22
2018-11-04T04:55:13.058Z,11.21
2018-11-04T04:57:42.309Z,11.24
2018-11-04T05:00:11.563Z,11.24
2018-11-04T05:02:40.741Z,11.25
2018-11-04T05:05:10.044Z,11.25
2018-11-04T05:07:39.266Z,11.27
2018-11-04T05:10:08.575Z,11.29
2018-11-04T05:12:37.780Z,11.30
2018-11-04T05:15:08.420Z,11.35
2018-11-04T05:17:37.772Z,11.34
2018-11-04T05:20:07.023Z,11.31
2018-11-04T05:22:36.223Z,11.33
2018-11-04T05:25:06.279Z,11.39
2018-11-04T05:27:35.569Z,11.40
2018-11-04T05:30:06.198Z,11.42
2018-11-04T05:32:35.369Z,11.41
2018-11-04T05:35:04.735Z,11.45
2018-11-04T05:37:33.972Z,11.48
2018-11-04T05:40:03.206Z,11.50
2018-11-04T05:42:32.404Z,11.56
2018-11-04T05:45:01.801Z,11.51
2018-11-04T05:47:31.026Z,11.52
2018-11-04T05:50:00.258Z,11.56
2018-11-04T05:52:29.561Z,11.53
2018-11-04T05:54:58.763Z,11.55
2018-11-04T05:57:28.024Z,11.56
2018-11-04T05:59:57.252Z,11.60
2018-11-04T06:02:26.604Z,11.62
2018-11-04T06:04:55.776Z,11.62
2018-11-04T06:07:25.007Z,11.60
2018-11-04T06:09:54.211Z,11.61
2018-11-04T06:12:23.410Z,11.67
2018-11-04T06:14:52.699Z,11.61
2018-11-04T06:17:21.880Z,11.60
2018-11-04T06:19:51.131Z,11.63
2018-11-04T06:22:20.340Z,11.65
2018-11-04T06:24:49.572Z,11.69
2018-11-04T06:27:18.854Z,11.70
2018-11-04T06:29:48.030Z,11.75
2018-11-04T06:32:17.283Z,11.70
2018-11-04T06:34:46.565Z,11.73
2018-11-04T06:37:15.795Z,11.78
2018-11-04T06:39:45.024Z,11.82
2018-11-04T06:42:14.216Z,11.80
2018-11-04T06:44:43.475Z,11.84
2018-11-04T06:47:12.755Z,11.84
2018-11-04T06:49:41.960Z,11.84
2018-11-04T06:52:11.280Z,11.93
2018-11-04T06:54:41.202Z,11.95
2018-11-04T06:57:10.424Z,11.92
2018-11-04T06:59:39.643Z,11.94
2018-11-04T07:02:08.852Z,11.95
2018-11-04T07:04:38.079Z,11.95
2018-11-04T07:07:07.510Z,11.97
2018-11-04T07:09:36.723Z,12.01
2018-11-04T07:12:06.337Z,12.04
2018-11-04T07:14:35.556Z,12.01
2018-11-04T07:17:04.884Z,12.03
2018-11-04T07:19:34.145Z,12.04
2018-11-04T07:22:03.355Z,12.10
2018-11-04T07:24:32.595Z,12.12
2018-11-04T07:27:01.864Z,12.13
2018-11-04T07:29:31.286Z,12.17
2018-11-04T07:32:00.579Z,12.15
2018-11-04T07:34:29.761Z,12.20
2018-11-04T07:36:59.023Z,12.17
2018-11-04T07:39:28.246Z,12.23
2018-11-04T07:41:57.442Z,12.19
2018-11-04T07:44:26.752Z,12.22
2018-11-04T07:46:55.950Z,12.25
2018-11-04T07:49:25.253Z,12.22
2018-11-04T07:51:54.678Z,12.22
2018-11-04T07:54:23.912Z,12.28
2018-11-04T07:56:53.205Z,12.29
2018-11-04T07:59:22.442Z,12.35
2018-11-04T08:01:51.669Z,12.35
2018-11-04T08:04:21.020Z,12.32
2018-11-04T08:06:50.463Z,12.38
2018-11-04T08:09:19.747Z,12.36
2018-11-04T08:11:48.973Z,12.40
2018-11-04T08:14:18.289Z,12.43
2018-11-04T08:16:47.466Z,12.45
2018-11-04T08:19:16.643Z,12.52
2018-11-04T08:21:45.854Z,12.56
2018-11-04T08:24:15.067Z,12.63
2018-11-04T08:26:44.343Z,12.62
2018-11-04T08:29:13.562Z,12.71
2018-11-04T08:31:42.939Z,12.73
2018-11-04T08:34:12.211Z,12.76
2018-11-04T08:36:41.881Z,12.80
2018-11-04T08:39:11.541Z,12.85
2018-11-04T08:41:40.755Z,12.85
2018-11-04T08:44:10.011Z,12.84
2018-11-04T08:46:39.199Z,12.84
2018-11-04T08:49:08.539Z,12.84
2018-11-04T08:51:37.902Z,12.86
2018-11-04T08:54:07.142Z,12.93
2018-11-04T08:56:36.426Z,12.97
2018-11-04T08:59:05.895Z,12.99
2018-11-04T09:01:35.107Z,13.00
2018-11-04T09:04:04.531Z,13.03
2018-11-04T09:06:33.889Z,13.09
2018-11-04T09:10:00.517Z,13.09
2018-11-04T09:12:29.845Z,13.16
2018-11-04T09:14:59.097Z,13.19
2018-11-04T09:17:28.310Z,13.21
2018-11-04T09:19:57.546Z,13.25
2018-11-04T09:22:26.860Z,13.22
2018-11-04T09:24:56.918Z,13.25
2018-11-04T09:27:26.325Z,13.28
2018-11-04T09:29:55.649Z,13.29
2018-11-04T09:32:24.896Z,13.36
2018-11-04T09:34:54.265Z,13.36
2018-11-04T09:37:23.440Z,13.35
2018-11-04T09:39:52.785Z,13.43
2018-11-04T09:42:21.970Z,13.44
2018-11-04T09:44:51.165Z,13.50
2018-11-04T09:47:20.482Z,13.54
2018-11-04T09:49:49.702Z,13.58
2018-11-04T09:52:18.965Z,13.59
2018-11-04T09:54:48.266Z,13.60
2018-11-04T09:57:17.509Z,13.58
2018-11-04T09:59:46.969Z,13.58
2018-11-04T10:02:16.154Z,13.55
2018-11-04T10:04:45.348Z,13.83
2018-11-04T10:07:14.760Z,13.73
2018-11-04T10:09:43.957Z,13.62
2018-11-04T10:12:13.181Z,14.24
2018-11-04T10:14:42.480Z,13.92
2018-11-04T10:17:11.793Z,13.73
2018-11-04T10:19:41.230Z,13.61
2018-11-04T10:22:10.408Z,13.54
2018-11-04T10:24:39.716Z,13.55
2018-11-04T10:27:09.440Z,13.53
2018-11-04T10:29:38.732Z,13.54
2018-11-04T10:32:07.992Z,13.53
2018-11-04T10:34:37.343Z,13.54
2018-11-04T10:37:07.020Z,13.56
2018-11-04T10:39:36.262Z,13.60
2018-11-04T10:42:05.694Z,13.62
2018-11-04T10:44:34.938Z,13.59
2018-11-04T10:47:04.184Z,13.57
2018-11-04T10:49:33.588Z,13.59
2018-11-04T10:52:02.675Z,13.64
2018-11-04T10:54:31.869Z,13.62
2018-11-04T10:57:01.558Z,13.64
2018-11-04T10:59:30.962Z,13.70
2018-11-04T11:02:00.140Z,13.69
2018-11-04T11:04:29.388Z,13.69
2018-11-04T11:06:58.620Z,13.71
2018-11-04T11:09:27.818Z,13.72
2018-11-04T11:11:57.019Z,13.77
2018-11-04T11:14:26.205Z,13.83
2018-11-04T11:16:55.433Z,13.86
2018-11-04T11:19:24.898Z,13.83
2018-11-04T11:21:54.194Z,13.85
2018-11-04T11:24:23.457Z,13.85
2018-11-04T11:26:52.719Z,13.86
2018-11-04T11:29:22.015Z,13.88
2018-11-04T11:31:51.278Z,13.91
2018-11-04T11:34:20.596Z,13.87
2018-11-04T11:36:49.810Z,13.90
2018-11-04T11:39:19.125Z,13.92
2018-11-04T11:41:48.402Z,14.03
2018-11-04T11:44:17.714Z,14.02
2018-11-04T11:46:47.039Z,14.00
2018-11-04T11:49:16.287Z,13.98
2018-11-04T11:51:45.588Z,14.03
2018-11-04T11:54:14.785Z,14.01
2018-11-04T11:56:44.153Z,14.06
2018-11-04T11:59:13.419Z,14.06
2018-11-04T12:01:42.584Z,14.12
2018-11-04T12:04:11.987Z,14.19
2018-11-04T12:06:41.199Z,14.12
2018-11-04T12:09:10.631Z,14.14
2018-11-04T12:11:39.864Z,14.10
2018-11-04T12:14:09.122Z,14.08
2018-11-04T12:16:38.374Z,14.05
2018-11-04T12:19:07.823Z,14.08
2018-11-04T12:21:37.157Z,14.14
2018-11-04T12:24:06.529Z,14.17
2018-11-04T12:26:35.954Z,14.10
2018-11-04T12:29:05.645Z,14.10
2018-11-04T12:31:34.974Z,14.08
2018-11-04T12:34:04.249Z,14.08
2018-11-04T12:36:33.489Z,14.05
2018-11-04T12:39:03.062Z,14.05
2018-11-04T12:41:32.327Z,14.05
2018-11-04T12:44:01.674Z,14.04
2018-11-04T12:46:30.963Z,14.04
2018-11-04T12:49:00.247Z,14.03
2018-11-04T12:51:29.613Z,14.02
2018-11-04T12:53:58.824Z,13.98
2018-11-04T12:56:28.132Z,14.02
2018-11-04T12:58:57.588Z,13.97
2018-11-04T13:01:26.767Z,13.99
2018-11-04T13:03:57.233Z,13.97
2018-11-04T13:06:26.518Z,13.95
2018-11-04T13:08:55.731Z,13.94
2018-11-04T13:11:24.966Z,13.92
2018-11-04T13:13:54.187Z,13.95
2018-11-04T13:16:23.514Z,13.96
2018-11-04T13:18:52.711Z,13.95
2018-11-04T13:21:21.976Z,13.93
2018-11-04T13:23:51.251Z,13.89
2018-11-04T13:26:20.498Z,13.87
2018-11-04T13:28:49.721Z,13.82
2018-11-04T13:31:18.981Z,13.84
2018-11-04T13:33:48.307Z,13.77
2018-11-04T13:36:17.593Z,13.78
2018-11-04T13:38:46.912Z,13.76
2018-11-04T13:41:16.149Z,13.72
2018-11-04T13:43:45.390Z,13.73
2018-11-04T13:46:14.763Z,13.73
2018-11-04T13:48:43.973Z,13.69
2018-11-04T13:51:13.371Z,13.71
2018-11-04T13:53:42.615Z,13.70
2018-11-04T13:56:11.968Z,13.64
2018-11-04T13:58:41.283Z,13.59
2018-11-04T14:01:10.499Z,13.61
2018-11-04T14:03:39.735Z,13.55
2018-11-04T14:06:09.297Z,13.52
2018-11-04T14:08:38.556Z,13.48
2018-11-04T14:11:08.135Z,13.47
2018-11-04T14:13:37.410Z,13.42
2018-11-04T14:16:06.702Z,13.39
2018-11-04T14:18:36.083Z,13.33
2018-11-04T14:21:05.665Z,13.37
2018-11-04T14:23:34.897Z,13.30
2018-11-04T14:26:04.216Z,13.27
2018-11-04T14:28:33.522Z,13.23
2018-11-04T14:31:02.845Z,13.26
2018-11-04T14:33:32.238Z,13.27
2018-11-04T14:36:01.458Z,13.13
2018-11-04T14:38:30.750Z,13.09
2018-11-04T14:41:00.002Z,13.06
2018-11-04T14:43:29.283Z,13.06
2018-11-04T14:45:58.523Z,13.01
2018-11-04T14:48:27.752Z,13.01
2018-11-04T14:50:57.083Z,13.00
2018-11-04T14:53:26.370Z,13.00
2018-11-04T14:55:55.607Z,12.98
2018-11-04T14:58:24.857Z,12.99
2018-11-04T15:00:54.056Z,12.96
2018-11-04T15:03:24.434Z,12.94
2018-11-04T15:05:53.716Z,12.91
2018-11-04T15:08:23.124Z,12.89
2018-11-04T15:10:53.333Z,12.91
2018-11-04T15:13:22.612Z,12.93
2018-11-04T15:15:51.850Z,12.87
2018-11-04T15:18:21.184Z,12.86
2018-11-04T15:20:50.496Z,12.88
2018-11-04T15:23:19.715Z,12.87
2018-11-04T15:25:49.064Z,12.89
2018-11-04T15:28:18.310Z,12.87
2018-11-04T15:30:47.590Z,12.84
2018-11-04T15:33:16.934Z,12.87
2018-11-04T15:35:46.271Z,12.83
2018-11-04T15:38:15.528Z,12.83
2018-11-04T15:40:44.828Z,12.84
2018-11-04T15:43:13.979Z,12.84
2018-11-04T15:45:43.207Z,12.85
2018-11-04T15:48:12.581Z,12.85
2018-11-04T15:50:41.855Z,12.85
2018-11-04T15:53:11.287Z,12.85
2018-11-04T15:55:40.838Z,12.85
2018-11-04T15:58:10.122Z,12.84
2018-11-04T16:00:39.403Z,12.84
2018-11-04T16:03:09.013Z,12.85
2018-11-04T16:05:38.351Z,12.93
2018-11-04T16:08:07.649Z,12.85
2018-11-04T16:10:36.963Z,12.81
2018-11-04T16:13:06.251Z,12.83
2018-11-04T16:15:35.622Z,12.80
2018-11-04T16:18:04.975Z,12.80
2018-11-04T16:20:34.265Z,12.79
2018-11-04T16:23:03.429Z,12.86
2018-11-04T16:25:32.669Z,12.84
2018-11-04T16:28:01.863Z,12.86
2018-11-04T16:30:31.127Z,12.85
2018-11-04T16:33:00.404Z,12.87
2018-11-04T16:35:29.607Z,12.86
2018-11-04T16:37:58.884Z,12.82
2018-11-04T16:40:27.978Z,12.84
2018-11-04T16:42:58.071Z,12.84
2018-11-04T16:45:27.323Z,12.80
2018-11-04T16:47:56.787Z,12.80
2018-11-04T16:50:25.970Z,12.78
2018-11-04T16:52:55.154Z,12.75
2018-11-04T16:55:24.361Z,12.74
2018-11-04T16:57:53.615Z,12.76
2018-11-04T17:00:22.835Z,12.72
2018-11-04T17:02:52.021Z,12.63
2018-11-04T17:05:21.339Z,12.66
2018-11-04T17:07:50.542Z,12.66
2018-11-04T17:10:19.812Z,12.66
2018-11-04T17:12:49.105Z,12.59
2018-11-04T17:15:18.370Z,12.58
2018-11-04T17:17:47.901Z,12.53
2018-11-04T17:20:18.218Z,12.52
2018-11-04T17:22:47.577Z,12.52
2018-11-04T17:25:16.866Z,12.48
2018-11-04T17:27:46.179Z,12.46
2018-11-04T17:30:16.940Z,12.42
2018-11-04T17:32:46.562Z,12.42
2018-11-04T17:35:16.710Z,12.41
2018-11-04T17:37:46.638Z,12.45
2018-11-04T17:40:16.700Z,12.41
2018-11-04T17:42:45.991Z,12.46
2018-11-04T17:45:16.423Z,12.39
2018-11-04T17:47:46.246Z,12.45
2018-11-04T17:50:17.015Z,12.41
2018-11-04T17:52:46.343Z,12.43
2018-11-04T17:55:16.309Z,12.43
2018-11-04T17:57:46.070Z,12.42
2018-11-04T18:00:16.468Z,12.41
2018-11-04T18:02:45.723Z,12.36
2018-11-04T18:05:15.109Z,12.41
2018-11-04T18:07:44.847Z,12.41
2018-11-04T18:10:15.499Z,12.33
2018-11-04T18:12:44.773Z,12.38
2018-11-04T18:15:15.032Z,12.35
2018-11-04T18:17:44.439Z,12.35
2018-11-04T18:20:13.957Z,12.41
2018-11-04T18:22:43.202Z,12.59
2018-11-04T18:25:12.934Z,12.49
2018-11-04T18:27:42.241Z,13.08
2018-11-04T18:30:15.368Z,13.07
2018-11-04T18:32:45.288Z,12.76
2018-11-04T18:35:14.707Z,12.67
2018-11-04T18:37:44.061Z,12.62
2018-11-04T18:40:15.533Z,12.61
2018-11-04T18:42:45.212Z,12.58
2018-11-04T18:45:15.719Z,12.50
2018-11-04T18:47:45.293Z,12.48
2018-11-04T18:50:15.295Z,12.52
2018-11-04T18:52:44.634Z,12.55
2018-11-04T18:55:13.812Z,12.52
2018-11-04T18:57:44.196Z,12.57
2018-11-04T19:00:14.850Z,12.54
2018-11-04T19:02:44.483Z,12.53
2018-11-04T19:05:14.034Z,12.53
2018-11-04T19:07:44.880Z,12.55
2018-11-04T19:10:16.842Z,12.50
2018-11-04T19:12:46.170Z,12.48
2018-11-04T19:15:15.536Z,12.43
2018-11-04T19:17:44.820Z,12.41
2018-11-04T19:20:14.972Z,12.43
2018-11-04T19:22:44.322Z,12.38
2018-11-04T19:25:14.464Z,12.46
2018-11-04T19:27:43.710Z,12.48
2018-11-04T19:30:14.866Z,12.48
2018-11-04T19:32:44.645Z,12.45
2018-11-04T19:35:15.192Z,12.37
2018-11-04T19:37:44.363Z,12.33
2018-11-04T19:40:14.675Z,12.33
2018-11-04T19:42:45.105Z,12.31
2018-11-04T19:45:14.532Z,12.38
2018-11-04T19:47:43.778Z,12.37
2018-11-04T19:50:16.726Z,12.37
2018-11-04T19:52:45.977Z,12.43
2018-11-04T19:55:15.219Z,12.46
2018-11-04T19:57:44.434Z,12.41
2018-11-04T20:00:14.168Z,12.37
2018-11-04T20:02:43.337Z,12.41
2018-11-04T20:05:13.282Z,12.52
2018-11-04T20:07:43.029Z,12.46
2018-11-04T20:10:19.281Z,12.41
2018-11-04T20:12:53.982Z,12.41
2018-11-04T20:15:23.366Z,12.40
2018-11-04T20:17:52.721Z,12.43
2018-11-04T20:20:24.026Z,12.62
2018-11-04T20:22:53.434Z,12.49
2018-11-04T20:25:27.977Z,12.46
2018-11-04T20:27:57.214Z,12.43
2018-11-04T20:30:26.547Z,12.45
2018-11-04T20:33:03.871Z,12.49
2018-11-04T20:35:33.319Z,12.42
2018-11-04T20:38:02.745Z,12.44
2018-11-04T20:40:37.323Z,12.42
2018-11-04T20:43:06.864Z,12.42
2018-11-04T20:45:36.114Z,12.33
2018-11-04T20:48:11.058Z,12.25
2018-11-04T20:50:45.599Z,12.20
2018-11-04T20:53:14.925Z,12.16
2018-11-04T20:55:49.404Z,12.14
2018-11-04T20:58:18.718Z,12.13
2018-11-04T21:00:48.977Z,12.12
2018-11-04T21:03:18.176Z,12.08
2018-11-04T21:05:47.439Z,12.02
2018-11-04T21:08:16.791Z,11.96
2018-11-04T21:10:46.065Z,11.90
2018-11-04T21:13:15.362Z,11.87
2018-11-04T21:15:44.642Z,11.82
2018-11-04T21:18:13.914Z,11.73
2018-11-04T21:20:43.745Z,11.71
2018-11-04T21:23:12.991Z,11.63
2018-11-04T21:25:42.432Z,11.59
2018-11-04T21:28:11.591Z,11.52
2018-11-04T21:30:40.890Z,11.57
2018-11-04T21:33:10.262Z,11.68
2018-11-04T21:35:39.514Z,11.72
2018-11-04T21:38:08.822Z,11.74
2018-11-04T21:40:38.035Z,11.80
2018-11-04T21:43:07.634Z,11.88
2018-11-04T21:45:36.628Z,11.95
2018-11-04T21:48:06.353Z,11.92
2018-11-04T21:50:35.606Z,11.99
2018-11-04T21:53:04.821Z,12.10
2018-11-04T21:55:34.361Z,12.13
2018-11-04T21:58:03.457Z,12.18
2018-11-04T22:00:32.728Z,12.11
2018-11-04T22:03:01.990Z,12.13
2018-11-04T22:05:31.219Z,12.19
2018-11-04T22:08:00.437Z,12.18
2018-11-04T22:10:29.726Z,12.15
2018-11-04T22:12:58.862Z,12.12
2018-11-04T22:15:28.082Z,12.14
2018-11-04T22:17:57.282Z,12.13
2018-11-04T22:20:26.456Z,12.13
2018-11-04T22:22:55.625Z,12.09
2018-11-04T22:25:24.865Z,12.04
2018-11-04T22:27:54.056Z,12.12
2018-11-04T22:30:23.254Z,12.13
2018-11-04T22:32:52.396Z,12.12
2018-11-04T22:35:21.582Z,12.11
2018-11-04T22:37:50.789Z,12.07
2018-11-04T22:40:19.966Z,12.09
2018-11-04T22:42:49.412Z,12.01
2018-11-04T22:45:18.597Z,11.98
2018-11-04T22:47:47.807Z,11.94
2018-11-04T22:50:17.015Z,11.89
2018-11-04T22:52:46.299Z,11.88
2018-11-04T22:55:15.670Z,11.83
2018-11-04T22:57:45.340Z,11.84
2018-11-04T23:00:19.699Z,11.93
2018-11-04T23:02:49.990Z,11.90
2018-11-04T23:05:24.357Z,12.00
2018-11-04T23:07:53.606Z,11.95
2018-11-04T23:10:22.834Z,11.87
2018-11-04T23:12:52.024Z,11.87
2018-11-04T23:15:21.223Z,11.82
2018-11-04T23:17:50.357Z,11.76
2018-11-04T23:20:19.588Z,11.80
2018-11-04T23:22:48.798Z,11.79
2018-11-04T23:25:18.056Z,11.64
2018-11-04T23:27:47.327Z,11.61
2018-11-04T23:30:20.666Z,11.55
2018-11-04T23:32:49.908Z,11.55
2018-11-04T23:35:19.180Z,11.50
2018-11-04T23:37:48.389Z,11.48
2018-11-04T23:40:17.611Z,11.49
2018-11-04T23:42:46.833Z,11.46
2018-11-04T23:45:16.166Z,11.44
2018-11-04T23:47:45.344Z,11.44
2018-11-04T23:50:16.509Z,11.38
2018-11-04T23:52:46.141Z,11.32
2018-11-04T23:55:15.813Z,11.27
2018-11-04T23:57:45.013Z,11.20
